createdAt,value
2019-04-06T00:02:22.893Z,-0.10
2019-04-06T00:04:53.505Z,0.00
2019-04-06T00:07:23.973Z,0.00
2019-04-06T00:09:54.500Z,0.00
2019-04-06T00:12:24.865Z,0.10
2019-04-06T00:14:55.302Z,0.10
2019-04-06T00:17:25.808Z,0.10
2019-04-06T00:19:56.365Z,0.10
2019-04-06T00:22:27.055Z,0.10
2019-04-06T00:24:57.525Z,0.10
2019-04-06T00:27:28.175Z,0.10
2019-04-06T00:29:58.891Z,0.10
2019-04-06T00:32:48.354Z,0.20
2019-04-06T00:35:18.763Z,0.10
2019-04-06T00:37:49.398Z,0.10
2019-04-06T00:40:19.951Z,0.10
2019-04-06T00:42:50.377Z,0.10
2019-04-06T00:45:20.895Z,0.10
2019-04-06T00:47:51.405Z,0.00
2019-04-06T00:50:22.899Z,-0.10
2019-04-06T00:52:53.340Z,-0.10
2019-04-06T00:55:23.805Z,0.00
2019-04-06T00:57:55.379Z,-0.20
2019-04-06T01:00:25.763Z,-0.20
2019-04-06T01:05:46.785Z,-0.20
2019-04-06T01:08:17.329Z,-0.20
2019-04-06T01:10:49.029Z,-0.30
2019-04-06T01:13:19.479Z,-0.40
2019-04-06T01:15:50.039Z,-0.40
2019-04-06T01:18:20.599Z,-0.50
2019-04-06T01:20:51.084Z,-0.50
2019-04-06T01:23:21.644Z,-0.50
2019-04-06T01:25:52.120Z,-0.60
2019-04-06T01:28:22.573Z,-0.60
2019-04-06T01:30:53.049Z,-0.70
2019-04-06T01:33:23.488Z,-0.70
2019-04-06T01:35:53.930Z,-0.70
2019-04-06T01:38:24.418Z,-0.70
2019-04-06T01:40:54.895Z,-0.80
2019-04-06T01:43:25.395Z,-0.80
2019-04-06T01:45:55.875Z,-0.70
2019-04-06T01:48:26.370Z,-0.80
2019-04-06T01:50:56.948Z,-0.80
2019-04-06T01:53:27.434Z,-0.80
2019-04-06T01:55:57.973Z,-0.80
2019-04-06T01:58:28.489Z,-0.80
2019-04-06T02:01:36.189Z,-0.80
2019-04-06T02:04:06.704Z,-0.90
2019-04-06T02:06:37.177Z,-0.90
2019-04-06T02:09:07.964Z,-0.80
2019-04-06T02:11:38.394Z,-0.70
2019-04-06T02:14:08.898Z,-0.70
2019-04-06T02:16:39.230Z,-0.60
2019-04-06T02:19:09.765Z,-0.60
2019-04-06T02:21:40.395Z,-0.60
2019-04-06T02:24:10.921Z,-0.60
2019-04-06T02:26:41.381Z,-0.60
2019-04-06T02:29:11.873Z,-0.70
2019-04-06T02:32:35.558Z,-0.60
2019-04-06T02:35:25.442Z,-0.60
2019-04-06T02:38:10.274Z,-0.60
2019-04-06T02:40:59.944Z,-0.70
2019-04-06T02:43:32.600Z,-0.80
2019-04-06T02:46:03.285Z,-0.70
2019-04-06T02:48:33.848Z,-0.70
2019-04-06T02:51:04.353Z,-0.70
2019-04-06T02:53:34.849Z,-0.70
2019-04-06T02:56:05.212Z,-0.70
2019-04-06T02:58:35.737Z,-0.70
2019-04-06T03:01:06.251Z,-0.80
2019-04-06T03:03:36.862Z,-0.80
2019-04-06T03:06:08.726Z,-0.80
2019-04-06T03:08:39.246Z,-0.90
2019-04-06T03:11:09.758Z,-0.80
2019-04-06T03:13:40.652Z,-0.80
2019-04-06T03:16:12.230Z,-0.80
2019-04-06T03:18:43.514Z,-0.80
2019-04-06T03:21:15.012Z,-0.90
2019-04-06T03:23:51.613Z,-1.00
2019-04-06T03:26:17.728Z,-1.00
2019-04-06T03:28:48.236Z,-1.00
2019-04-06T03:31:23.569Z,-1.00
2019-04-06T03:33:50.720Z,-1.10
2019-04-06T03:36:21.240Z,-1.10
2019-04-06T03:38:51.721Z,-1.20
2019-04-06T03:41:22.194Z,-1.20
2019-04-06T03:43:53.729Z,-1.20
2019-04-06T03:46:24.227Z,-1.20
2019-04-06T03:48:54.676Z,-1.20
2019-04-06T03:51:25.219Z,-1.20
2019-04-06T03:53:55.738Z,-1.20
2019-04-06T03:56:26.195Z,-1.20
2019-04-06T03:58:56.701Z,-1.20
2019-04-06T04:01:27.235Z,-1.10
2019-04-06T04:03:57.674Z,-1.10
2019-04-06T04:06:28.071Z,-1.10
2019-04-06T04:08:58.631Z,-1.10
2019-04-06T04:11:28.990Z,-1.00
2019-04-06T04:13:59.434Z,-1.00
2019-04-06T04:16:29.935Z,-1.00
2019-04-06T04:19:00.295Z,-1.00
2019-04-06T04:21:30.614Z,-1.00
2019-04-06T04:24:01.033Z,-1.10
2019-04-06T04:26:31.467Z,-1.10
2019-04-06T04:29:01.863Z,-1.20
2019-04-06T04:31:32.267Z,-1.20
2019-04-06T04:34:02.704Z,-1.20
2019-04-06T04:36:33.111Z,-1.30
2019-04-06T04:39:05.910Z,-1.30
2019-04-06T04:41:39.209Z,-1.30
2019-04-06T04:44:08.604Z,-1.20
2019-04-06T04:46:39.104Z,-1.30
2019-04-06T04:49:09.721Z,-1.30
2019-04-06T04:51:40.279Z,-1.30
2019-04-06T04:54:10.726Z,-1.40
2019-04-06T04:56:41.439Z,-1.40
2019-04-06T04:59:12.034Z,-1.40
2019-04-06T05:01:42.498Z,-1.40
2019-04-06T05:04:13.070Z,-1.40
2019-04-06T05:06:43.635Z,-1.40
2019-04-06T05:09:14.167Z,-1.40
2019-04-06T05:11:44.691Z,-1.40
2019-04-06T05:14:50.804Z,-1.40
2019-04-06T05:17:23.084Z,-1.40
2019-04-06T05:19:55.674Z,-1.30
2019-04-06T05:22:26.169Z,-1.30
2019-04-06T05:24:56.645Z,-1.20
2019-04-06T05:27:27.139Z,-1.20
2019-04-06T05:29:58.790Z,-1.30
2019-04-06T05:32:29.344Z,-1.20
2019-04-06T05:34:59.950Z,-1.20
2019-04-06T05:37:30.720Z,-1.20
2019-04-06T05:40:02.335Z,-1.10
2019-04-06T05:42:35.271Z,-1.10
2019-04-06T05:45:06.846Z,-1.00
2019-04-06T05:47:43.641Z,-0.90
2019-04-06T05:50:14.646Z,-0.90
2019-04-06T05:52:45.187Z,-0.90
2019-04-06T05:55:16.217Z,-0.80
2019-04-06T05:57:46.890Z,-0.70
2019-04-06T06:00:18.116Z,-0.50
2019-04-06T06:02:50.110Z,-0.50
2019-04-06T06:05:20.970Z,-0.50
2019-04-06T06:07:53.008Z,-0.30
2019-04-06T06:10:23.653Z,-0.20
2019-04-06T06:12:54.354Z,0.00
2019-04-06T06:15:24.881Z,0.20
2019-04-06T06:17:55.550Z,0.60
2019-04-06T06:20:26.187Z,1.00
2019-04-06T06:22:56.796Z,1.50
2019-04-06T06:25:27.403Z,2.10
2019-04-06T06:27:58.087Z,2.30
2019-04-06T06:30:28.764Z,2.30
2019-04-06T06:32:59.243Z,2.60
2019-04-06T06:35:29.874Z,2.70
2019-04-06T06:38:00.411Z,3.10
2019-04-06T06:40:31.149Z,3.20
2019-04-06T06:43:01.747Z,3.30
2019-04-06T06:45:32.423Z,3.70
2019-04-06T06:48:03.016Z,4.10
2019-04-06T06:50:34.686Z,4.30
2019-04-06T06:53:05.235Z,4.00
2019-04-06T06:55:35.782Z,3.50
2019-04-06T06:58:12.245Z,3.20
2019-04-06T07:00:42.791Z,3.00
2019-04-06T07:03:13.245Z,3.00
2019-04-06T07:05:43.707Z,3.00
2019-04-06T07:08:14.156Z,2.80
2019-04-06T07:10:44.607Z,2.70
2019-04-06T07:13:15.150Z,2.60
2019-04-06T07:15:45.836Z,2.60
2019-04-06T07:18:16.932Z,2.80
2019-04-06T07:20:47.387Z,2.90
2019-04-06T07:23:18.112Z,3.10
2019-04-06T07:25:57.347Z,3.50
2019-04-06T07:28:20.652Z,3.70
2019-04-06T07:30:51.277Z,3.80
2019-04-06T07:33:21.631Z,3.80
2019-04-06T07:35:52.014Z,3.80
2019-04-06T07:38:22.537Z,4.00
2019-04-06T07:40:53.040Z,4.30
2019-04-06T07:43:23.830Z,4.40
2019-04-06T07:45:55.684Z,4.60
2019-04-06T07:48:26.625Z,4.70
2019-04-06T07:50:57.691Z,4.60
2019-04-06T07:53:28.082Z,4.60
2019-04-06T07:55:58.568Z,4.60
2019-04-06T07:58:29.308Z,4.70
2019-04-06T08:01:00.991Z,4.70
2019-04-06T08:03:32.520Z,4.80
2019-04-06T08:06:02.975Z,4.90
2019-04-06T08:08:33.570Z,5.20
2019-04-06T08:11:04.166Z,5.50
2019-04-06T08:13:35.122Z,5.70
2019-04-06T08:16:05.914Z,5.90
2019-04-06T08:18:36.392Z,6.10
2019-04-06T08:21:07.110Z,6.10
2019-04-06T08:23:37.624Z,6.10
2019-04-06T08:26:08.423Z,5.90
2019-04-06T08:28:39.206Z,6.00
2019-04-06T08:31:11.820Z,6.10
2019-04-06T08:33:46.366Z,6.40
2019-04-06T08:36:27.298Z,6.50
2019-04-06T08:38:59.405Z,6.90
2019-04-06T08:41:30.360Z,6.60
2019-04-06T08:44:01.141Z,6.50
2019-04-06T08:46:31.760Z,6.60
2019-04-06T08:49:02.234Z,6.60
2019-04-06T08:51:32.706Z,6.90
2019-04-06T08:54:03.292Z,6.90
2019-04-06T08:56:33.776Z,7.20
2019-04-06T08:59:11.476Z,7.60
2019-04-06T09:01:36.529Z,7.90
2019-04-06T09:04:07.096Z,7.90
2019-04-06T09:06:36.413Z,8.10
2019-04-06T09:09:08.010Z,8.10
2019-04-06T09:11:38.583Z,8.10
2019-04-06T09:14:11.680Z,8.20
2019-04-06T09:16:42.223Z,8.30
2019-04-06T09:19:12.852Z,8.30
2019-04-06T09:21:43.546Z,8.30
2019-04-06T09:24:18.777Z,8.20
2019-04-06T09:26:49.436Z,8.20
2019-04-06T09:31:46.690Z,8.50
2019-04-06T09:34:17.345Z,8.90
2019-04-06T09:36:47.805Z,9.20
2019-04-06T09:39:18.366Z,9.20
2019-04-06T09:41:48.923Z,9.10
2019-04-06T09:44:39.338Z,9.10
2019-04-06T09:47:28.974Z,9.20
2019-04-06T09:50:21.239Z,9.10
2019-04-06T09:53:16.787Z,9.50
2019-04-06T09:56:11.972Z,9.90
2019-04-06T09:59:19.516Z,10.30
2019-04-06T10:02:09.116Z,10.30
2019-04-06T10:05:16.392Z,10.70
2019-04-06T10:08:06.722Z,10.80
2019-04-06T10:11:02.431Z,10.80
2019-04-06T10:22:53.982Z,11.70
2019-04-06T10:25:55.520Z,11.90
2019-04-06T10:28:44.913Z,11.70
2019-04-06T10:31:49.584Z,12.00
2019-04-06T10:34:37.640Z,12.00
2019-04-06T10:37:27.180Z,12.10
2019-04-06T10:40:22.948Z,12.40
2019-04-06T10:43:12.340Z,12.40
2019-04-06T10:46:08.064Z,12.20
2019-04-06T10:48:48.712Z,12.30
2019-04-06T10:51:30.322Z,12.30
2019-04-06T10:54:18.342Z,12.20
2019-04-06T10:56:56.578Z,12.00
2019-04-06T10:59:46.222Z,12.00
2019-04-06T11:02:34.167Z,11.80
2019-04-06T11:05:28.545Z,11.80
2019-04-06T11:08:37.621Z,12.10
2019-04-06T11:11:29.813Z,12.30
2019-04-06T11:14:07.781Z,12.20
2019-04-06T11:17:06.688Z,12.10
2019-04-06T11:19:59.429Z,12.40
2019-04-06T11:25:30.787Z,11.70
2019-04-06T11:28:25.696Z,11.50
2019-04-06T11:31:27.857Z,11.70
2019-04-06T11:34:26.313Z,12.00
2019-04-06T11:37:14.040Z,12.30
2019-04-06T11:40:09.716Z,12.20
2019-04-06T11:43:05.545Z,12.40
2019-04-06T11:45:54.194Z,12.60
2019-04-06T11:48:45.291Z,12.40
2019-04-06T11:51:32.623Z,12.40
2019-04-06T11:54:19.077Z,12.10
2019-04-06T11:57:03.973Z,11.90
2019-04-06T12:00:08.578Z,11.80
2019-04-06T12:02:56.453Z,11.80
2019-04-06T12:05:41.402Z,11.80
2019-04-06T12:08:43.032Z,11.90
2019-04-06T12:12:02.800Z,12.00
2019-04-06T12:14:42.429Z,12.10
2019-04-06T12:17:35.557Z,12.20
2019-04-06T12:20:17.528Z,12.40
2019-04-06T12:22:57.625Z,12.40
2019-04-06T12:25:48.174Z,12.50
2019-04-06T12:28:41.252Z,12.60
2019-04-06T12:31:26.177Z,12.60
2019-04-06T12:34:15.438Z,13.00
2019-04-06T12:37:13.821Z,13.10
2019-04-06T12:39:54.789Z,13.10
2019-04-06T12:42:51.792Z,12.90
2019-04-06T12:45:41.211Z,12.80
2019-04-06T12:48:33.921Z,13.00
2019-04-06T12:51:32.318Z,13.00
2019-04-06T12:54:18.875Z,13.00
2019-04-06T12:57:03.037Z,13.00
2019-04-06T13:00:00.604Z,12.90
2019-04-06T13:02:54.407Z,12.90
2019-04-06T13:05:41.302Z,12.80
2019-04-06T13:08:35.343Z,12.90
2019-04-06T13:11:19.445Z,13.00
2019-04-06T13:14:10.933Z,12.90
2019-04-06T13:17:03.383Z,12.90
2019-04-06T13:19:51.575Z,12.70
2019-04-06T13:22:40.211Z,12.80
2019-04-06T13:25:29.092Z,12.70
2019-04-06T13:28:31.838Z,12.60
2019-04-06T13:31:13.366Z,12.60
2019-04-06T13:36:54.732Z,12.80
2019-04-06T13:39:42.062Z,13.00
2019-04-06T13:42:50.506Z,13.00
2019-04-06T13:48:43.804Z,12.50
2019-04-06T13:51:31.052Z,12.30
2019-04-06T13:54:28.296Z,12.20
2019-04-06T13:57:21.001Z,12.20
2019-04-06T14:00:24.652Z,12.20
2019-04-06T14:03:32.164Z,12.10
2019-04-06T14:06:25.876Z,11.80
2019-04-06T14:09:15.236Z,11.80
2019-04-06T14:11:55.178Z,11.60
2019-04-06T14:14:50.467Z,11.50
2019-04-06T14:17:48.044Z,11.60
2019-04-06T14:20:33.953Z,11.70
2019-04-06T14:23:22.292Z,11.70
2019-04-06T14:26:04.913Z,11.80
2019-04-06T14:29:03.323Z,11.70
2019-04-06T14:31:49.087Z,11.70
2019-04-06T14:34:38.528Z,11.70
2019-04-06T14:37:40.322Z,11.70
2019-04-06T14:40:48.433Z,11.80
2019-04-06T14:43:38.318Z,11.70
2019-04-06T14:46:37.889Z,11.70
2019-04-06T14:49:33.610Z,11.60
2019-04-06T14:52:28.978Z,11.70
2019-04-06T14:55:17.319Z,11.80
2019-04-06T14:57:59.459Z,11.80
2019-04-06T15:01:08.460Z,11.80
2019-04-06T15:04:07.449Z,11.90
2019-04-06T15:06:53.142Z,11.90
2019-04-06T15:09:37.544Z,11.70
2019-04-06T15:12:28.940Z,11.80
2019-04-06T15:15:18.673Z,11.80
2019-04-06T15:18:14.108Z,11.90
2019-04-06T15:21:25.898Z,11.90
2019-04-06T15:24:11.904Z,11.90
2019-04-06T15:26:54.170Z,12.00
2019-04-06T15:29:37.226Z,12.10
2019-04-06T15:32:26.794Z,12.10
2019-04-06T15:35:22.320Z,12.10
2019-04-06T15:38:18.052Z,12.00
2019-04-06T15:40:58.503Z,12.00
2019-04-06T15:43:46.492Z,12.10
2019-04-06T15:46:25.618Z,12.20
2019-04-06T15:49:13.723Z,12.20
2019-04-06T15:52:10.246Z,12.30
2019-04-06T15:58:10.814Z,12.40
2019-04-06T16:01:00.428Z,12.60
2019-04-06T16:03:48.875Z,12.50
2019-04-06T16:06:27.863Z,12.50
2019-04-06T16:09:24.519Z,12.40
2019-04-06T16:12:18.112Z,12.20
2019-04-06T16:15:26.513Z,12.40
2019-04-06T16:18:19.382Z,12.30
2019-04-06T16:21:09.044Z,12.20
2019-04-06T16:24:04.148Z,12.10
2019-04-06T16:26:46.303Z,12.10
2019-04-06T16:29:34.650Z,12.00
2019-04-06T16:32:41.106Z,12.00
2019-04-06T16:35:42.759Z,11.80
2019-04-06T16:38:30.665Z,11.70
2019-04-06T16:41:25.782Z,11.50
2019-04-06T16:44:13.582Z,11.50
2019-04-06T16:47:12.594Z,11.30
2019-04-06T16:50:08.329Z,11.30
2019-04-06T16:53:12.833Z,11.20
2019-04-06T16:55:52.683Z,11.10
2019-04-06T16:58:45.824Z,11.00
2019-04-06T17:01:40.265Z,11.00
2019-04-06T17:04:44.246Z,10.90
2019-04-06T17:07:35.107Z,10.80
2019-04-06T17:10:39.482Z,10.80
2019-04-06T17:13:55.609Z,10.70
2019-04-06T17:16:45.964Z,10.60
2019-04-06T17:19:36.152Z,10.50
2019-04-06T17:22:43.747Z,10.40
2019-04-06T17:25:33.739Z,10.30
2019-04-06T17:28:10.639Z,10.20
2019-04-06T17:31:05.924Z,10.00
2019-04-06T17:33:54.380Z,9.90
2019-04-06T17:36:35.006Z,9.70
2019-04-06T17:39:35.730Z,9.50
2019-04-06T17:42:15.833Z,9.40
2019-04-06T17:44:57.589Z,9.20
2019-04-06T17:47:50.879Z,9.20
2019-04-06T17:50:34.549Z,9.10
2019-04-06T17:53:18.460Z,9.10
2019-04-06T17:56:06.920Z,8.80
2019-04-06T17:59:14.434Z,8.70
2019-04-06T18:01:53.798Z,8.60
2019-04-06T18:04:55.408Z,8.40
2019-04-06T18:08:02.970Z,8.20
2019-04-06T18:10:51.229Z,8.00
2019-04-06T18:13:42.471Z,8.00
2019-04-06T18:16:13.178Z,7.80
2019-04-06T18:18:44.139Z,7.60
2019-04-06T18:21:16.620Z,7.60
2019-04-06T18:23:47.230Z,7.50
2019-04-06T18:26:19.140Z,7.40
2019-04-06T18:28:49.805Z,7.30
2019-04-06T18:31:41.766Z,7.30
2019-04-06T18:34:12.454Z,7.20
2019-04-06T18:37:04.953Z,7.10
2019-04-06T18:39:35.712Z,7.00
2019-04-06T18:42:06.385Z,6.90
2019-04-06T18:44:40.057Z,6.80
2019-04-06T18:47:11.093Z,6.60
2019-04-06T18:49:42.404Z,6.60
2019-04-06T18:52:13.510Z,6.50
2019-04-06T18:54:43.946Z,6.40
2019-04-06T18:57:19.056Z,6.30
2019-04-06T18:59:50.418Z,6.30
2019-04-06T19:02:21.327Z,6.30
2019-04-06T19:04:52.114Z,6.10
2019-04-06T19:07:26.030Z,6.10
2019-04-06T19:09:56.536Z,6.00
2019-04-06T19:12:27.348Z,5.90
2019-04-06T19:14:57.916Z,5.80
2019-04-06T19:17:29.239Z,5.80
2019-04-06T19:20:00.131Z,5.70
2019-04-06T19:22:30.659Z,5.70
2019-04-06T19:25:08.088Z,5.60
2019-04-06T19:27:38.648Z,5.30
2019-04-06T19:30:10.134Z,5.20
2019-04-06T19:32:40.676Z,5.10
2019-04-06T19:35:15.850Z,5.00
2019-04-06T19:38:14.288Z,4.90
2019-04-06T19:40:44.989Z,4.80
2019-04-06T19:43:21.888Z,4.70
2019-04-06T19:45:52.916Z,4.70
2019-04-06T19:48:23.511Z,4.60
2019-04-06T19:51:13.060Z,4.50
2019-04-06T19:53:42.705Z,4.50
2019-04-06T19:56:13.280Z,4.60
2019-04-06T19:58:44.745Z,4.60
2019-04-06T20:01:15.918Z,4.60
2019-04-06T20:03:46.486Z,4.60
2019-04-06T20:06:18.249Z,4.40
2019-04-06T20:08:50.469Z,4.30
2019-04-06T20:11:21.134Z,4.30
2019-04-06T20:13:56.203Z,4.30
2019-04-06T20:16:27.503Z,4.30
2019-04-06T20:18:58.524Z,4.20
2019-04-06T20:21:29.644Z,4.20
2019-04-06T20:24:07.394Z,4.20
2019-04-06T20:26:40.028Z,4.10
2019-04-06T20:29:11.906Z,4.10
2019-04-06T20:31:42.916Z,4.10
2019-04-06T20:34:13.614Z,3.90
2019-04-06T20:37:05.055Z,3.80
2019-04-06T20:39:37.447Z,3.70
2019-04-06T20:42:08.097Z,3.80
2019-04-06T20:44:41.310Z,3.70
2019-04-06T20:47:12.734Z,3.70
2019-04-06T20:49:43.081Z,3.60
2019-04-06T20:52:16.050Z,3.50
2019-04-06T20:54:46.689Z,3.50
2019-04-06T20:57:17.045Z,3.60
2019-04-06T20:59:51.414Z,3.40
2019-04-06T21:02:25.959Z,3.40
2019-04-06T21:04:58.975Z,3.40
2019-04-06T21:07:29.702Z,3.30
2019-04-06T21:10:00.612Z,3.30
2019-04-06T21:12:31.204Z,3.20
2019-04-06T21:15:02.238Z,3.30
2019-04-06T21:17:34.306Z,3.30
2019-04-06T21:20:07.604Z,3.20
2019-04-06T21:22:38.582Z,3.10
2019-04-06T21:25:11.255Z,3.00
2019-04-06T21:27:44.071Z,3.00
2019-04-06T21:30:15.921Z,2.90
2019-04-06T21:32:47.845Z,2.90
2019-04-06T21:35:18.910Z,2.90
2019-04-06T21:37:51.671Z,2.90
2019-04-06T21:40:22.495Z,2.80
2019-04-06T21:42:53.269Z,2.70
2019-04-06T21:45:23.859Z,2.60
2019-04-06T21:48:01.739Z,2.60
2019-04-06T21:50:32.287Z,2.50
2019-04-06T21:53:09.454Z,2.40
2019-04-06T21:55:43.925Z,2.40
2019-04-06T21:58:14.788Z,2.40
2019-04-06T22:00:54.612Z,2.40
2019-04-06T22:03:26.016Z,2.40
2019-04-06T22:05:56.764Z,2.40
2019-04-06T22:08:28.641Z,2.40
2019-04-06T22:10:59.375Z,2.30
2019-04-06T22:13:33.034Z,2.30
2019-04-06T22:16:03.710Z,2.20
2019-04-06T22:18:34.151Z,2.20
2019-04-06T22:21:04.776Z,2.20
2019-04-06T22:23:42.046Z,2.20
2019-04-06T22:26:15.458Z,2.10
2019-04-06T22:28:48.029Z,2.10
2019-04-06T22:31:18.574Z,2.10
2019-04-06T22:33:49.170Z,2.20
2019-04-06T22:36:21.646Z,2.20
2019-04-06T22:38:52.685Z,2.20
2019-04-06T22:41:23.477Z,2.10
2019-04-06T22:43:54.064Z,2.00
2019-04-06T22:46:48.907Z,2.00
2019-04-06T22:49:21.465Z,2.00
2019-04-06T22:51:52.101Z,2.00
2019-04-06T22:54:24.024Z,2.00
2019-04-06T22:56:54.569Z,2.00
2019-04-06T22:59:25.605Z,1.90
2019-04-06T23:01:56.158Z,1.90
2019-04-06T23:04:51.529Z,1.90
2019-04-06T23:07:24.476Z,1.90
2019-04-06T23:09:55.151Z,1.90
2019-04-06T23:12:26.116Z,2.00
2019-04-06T23:14:56.840Z,2.10
2019-04-06T23:17:27.392Z,2.20
2019-04-06T23:19:57.994Z,2.20
2019-04-06T23:22:28.637Z,2.10
2019-04-06T23:25:06.731Z,2.10
2019-04-06T23:27:40.483Z,2.10
2019-04-06T23:30:10.591Z,2.10
2019-04-06T23:32:42.344Z,2.10
2019-04-06T23:35:18.807Z,2.10
2019-04-06T23:37:50.391Z,2.10
2019-04-06T23:40:21.371Z,2.10
2019-04-06T23:42:52.445Z,2.10
2019-04-06T23:45:23.525Z,2.00
2019-04-06T23:47:53.985Z,1.90
2019-04-06T23:50:24.344Z,1.90
2019-04-06T23:52:55.100Z,1.90
2019-04-06T23:55:26.137Z,1.90
2019-04-06T23:57:59.881Z,1.80
